Terminal Aerodrome Forecast
Issued by NWS Duluth, MN

Home | Current Version | Previous Version | Text Only | Print | Product List | Glossary On
Versions: 1 2 3 4 5 6 7 8 9 10 11 12 13 14 15 16 17 18 19 20 21 22 23 24 25 26 27 28 29 30
000
FTUS43 KDLH 250700 AAA
TAFDLH
TAF AMD
KDLH 250708Z 2507/2606 18013KT 4SM -SN OVC025
      TEMPO 2508/2510 2SM -SN OVC008
     FM251000 18014KT 5SM BR VCSH OVC015
     FM251300 24014KT 6SM -SN OVC020
      TEMPO 2513/2517 2SM -SN
     FM252000 29016G28KT P6SM VCSH OVC035
     FM260000 30015KT P6SM BKN040=

USA.gov is the U.S. government's official web portal to all federal, state and local government web resources and services.